Cannon Air Force Base
KCVS : now visible

Airfield :











YOU CAN JOIN US ON...

 
LOGIN :

Register | Disclaimer

   EN    FR    IT 

 









Legend :    VFR   Marginal VFR   IFR   Intensive IFR   Very Intensive IFR
Visi :
Ceiling :
>= 8 km
>= 3000ft
5 to 8 km
1000 to 3000 ft
1500m to 5 km
500 to 1000 ft
800 to 1500m
200 to 500 ft
< 800m
< 200 ft
Symbols :   Thunderstorms  Fog  Heavy snow  Heavy precipitations  Wind > 20 kt






- Airport Elevation : 4295 ft


KCVS - Cannon Air Force Base

CURRENT METAR :
  • 300358Z AUTO 34007KT 10SM CLR M02/M09 A3050 RMK AO2 SLP342 T10201094 $

EXPIRED METARs :
  • 300258Z AUTO 34006KT 10SM CLR M01/M09 A3048 RMK AO2 SLP335 T10151094 52022 $
  • 300158Z AUTO 35007KT 10SM CLR M01/M09 A3046 RMK AO2 SLP331 T10071089 $

TAF TAF KCVS
Valid from the 29 at 18:00 until the 01 at 00:00 UTC


291800Z 2918/3024 01020G35KT 9999 SKC QNH3030INS
BECMG 2921/2922 03015G25KT 9999 SKC QNH3031INS
BECMG 3000/3001 03012KT 9999 SKC QNH3037INS
BECMG 3006/3007 VRB06KT 9999 SKC QNH3037INS
BECMG 3018/3019 24010G18KT 9999 SKC QNH3045INS TX07/2921Z TNM07/3010Z LAST NO AMDS AFT 2918 NEXT 3010
KZAB FIR / North America



MET'MAP, your aeronautical weather chart ! - Copyright ORBIFLY December 2007 - Disclaimer

ORBIFLY MET'MAP TEAM :

Programming & Development : Alexandra Zaïnal
Concept & original design : Baudouin d'Aumeries
Assistance for programming : Marc-Olivier Méhu
Technical & hardware support : Manuel Goepfert

Contact : metmap@orbifly.com




SOURCES & CREDITS :

   NOAA       Earth
Advisory